sensor_id;sensor_type;location;lat;lon;timestamp;pressure;altitude;pressure_sealevel;temperature;humidity
73501;BME280;61721;42.206;25.320;2023-07-31T00:00:24;98828.81;;;24.63;45.12
73501;BME280;61721;42.206;25.320;2023-07-31T00:02:52;98830.19;;;24.75;45.09
73501;BME280;61721;42.206;25.320;2023-07-31T00:05:19;98826.34;;;24.66;45.10
73501;BME280;61721;42.206;25.320;2023-07-31T00:07:46;98832.38;;;24.88;43.98
73501;BME280;61721;42.206;25.320;2023-07-31T00:10:13;98826.34;;;24.56;44.63
73501;BME280;61721;42.206;25.320;2023-07-31T00:12:42;98829.63;;;24.63;44.54
73501;BME280;61721;42.206;25.320;2023-07-31T00:15:11;98830.72;;;24.72;44.30
73501;BME280;61721;42.206;25.320;2023-07-31T00:17:41;98831.25;;;24.84;43.76
73501;BME280;61721;42.206;25.320;2023-07-31T00:20:09;98843.66;;;25.02;43.88
73501;BME280;61721;42.206;25.320;2023-07-31T00:22:36;98844.50;;;24.98;43.63
73501;BME280;61721;42.206;25.320;2023-07-31T00:25:04;98843.41;;;24.99;43.11
73501;BME280;61721;42.206;25.320;2023-07-31T00:27:32;98842.84;;;24.97;43.27
73501;BME280;61721;42.206;25.320;2023-07-31T00:29:59;98845.59;;;24.86;44.05
73501;BME280;61721;42.206;25.320;2023-07-31T00:32:26;98857.69;;;24.85;44.00
73501;BME280;61721;42.206;25.320;2023-07-31T00:34:54;98862.38;;;24.95;43.50
73501;BME280;61721;42.206;25.320;2023-07-31T00:37:21;98860.75;;;24.99;43.40
73501;BME280;61721;42.206;25.320;2023-07-31T00:39:48;98850.81;;;24.88;43.92
73501;BME280;61721;42.206;25.320;2023-07-31T00:42:15;98850.28;;;24.71;44.00
73501;BME280;61721;42.206;25.320;2023-07-31T00:44:43;98844.78;;;24.60;44.25
73501;BME280;61721;42.206;25.320;2023-07-31T00:47:10;98853.03;;;24.60;44.08
73501;BME280;61721;42.206;25.320;2023-07-31T00:49:37;98863.50;;;24.84;43.51
73501;BME280;61721;42.206;25.320;2023-07-31T00:52:07;98868.72;;;24.65;43.86
73501;BME280;61721;42.206;25.320;2023-07-31T00:54:34;98872.59;;;24.54;44.27
73501;BME280;61721;42.206;25.320;2023-07-31T00:57:01;98874.22;;;24.45;44.58
73501;BME280;61721;42.206;25.320;2023-07-31T00:59:29;98870.38;;;24.66;44.54
73501;BME280;61721;42.206;25.320;2023-07-31T01:01:57;98878.09;;;24.69;44.51
73501;BME280;61721;42.206;25.320;2023-07-31T01:04:24;98882.75;;;24.89;44.03
73501;BME280;61721;42.206;25.320;2023-07-31T01:06:56;98880.03;;;24.64;44.61
73501;BME280;61721;42.206;25.320;2023-07-31T01:09:42;98884.16;;;24.51;44.79
73501;BME280;61721;42.206;25.320;2023-07-31T01:12:14;98882.22;;;24.77;44.64
73501;BME280;61721;42.206;25.320;2023-07-31T01:14:51;98873.69;;;24.53;45.31
73501;BME280;61721;42.206;25.320;2023-07-31T01:17:18;98883.59;;;24.74;44.76
73501;BME280;61721;42.206;25.320;2023-07-31T01:19:45;98881.66;;;24.34;46.45
73501;BME280;61721;42.206;25.320;2023-07-31T01:22:30;98876.91;;;24.19;47.51
73501;BME280;61721;42.206;25.320;2023-07-31T01:25:14;98872.03;;;24.47;46.97
73501;BME280;61721;42.206;25.320;2023-07-31T01:27:51;98882.22;;;24.46;46.67
73501;BME280;61721;42.206;25.320;2023-07-31T01:30:22;98882.75;;;24.38;47.31
73501;BME280;61721;42.206;25.320;2023-07-31T01:32:53;98879.19;;;24.38;47.21
73501;BME280;61721;42.206;25.320;2023-07-31T01:35:21;98889.66;;;24.51;46.96
73501;BME280;61721;42.206;25.320;2023-07-31T01:37:48;98891.78;;;24.18;48.03
73501;BME280;61721;42.206;25.320;2023-07-31T01:40:15;98898.06;;;24.09;48.19
73501;BME280;61721;42.206;25.320;2023-07-31T01:42:42;98903.97;;;24.63;46.89
73501;BME280;61721;42.206;25.320;2023-07-31T01:45:12;98908.38;;;24.49;46.81
73501;BME280;61721;42.206;25.320;2023-07-31T01:47:39;98911.41;;;24.63;46.78
73501;BME280;61721;42.206;25.320;2023-07-31T01:50:06;98916.25;;;24.15;48.33
73501;BME280;61721;42.206;25.320;2023-07-31T01:52:34;98914.66;;;23.56;49.65
73501;BME280;61721;42.206;25.320;2023-07-31T01:55:01;98905.47;;;23.36;50.74
73501;BME280;61721;42.206;25.320;2023-07-31T01:57:28;98901.78;;;23.67;50.30
73501;BME280;61721;42.206;25.320;2023-07-31T01:59:55;98905.41;;;23.78;49.56
73501;BME280;61721;42.206;25.320;2023-07-31T02:02:23;98907.16;;;24.09;48.77
73501;BME280;61721;42.206;25.320;2023-07-31T02:04:51;98913.41;;;23.89;49.74
73501;BME280;61721;42.206;25.320;2023-07-31T02:07:18;98916.34;;;23.68;50.23
73501;BME280;61721;42.206;25.320;2023-07-31T02:09:45;98925.09;;;23.54;50.57
73501;BME280;61721;42.206;25.320;2023-07-31T02:12:13;98935.03;;;23.66;50.41
73501;BME280;61721;42.206;25.320;2023-07-31T02:14:41;98926.06;;;23.85;49.84
73501;BME280;61721;42.206;25.320;2023-07-31T02:17:08;98917.16;;;24.46;47.91
73501;BME280;61721;42.206;25.320;2023-07-31T02:19:36;98918.28;;;24.60;47.24
73501;BME280;61721;42.206;25.320;2023-07-31T02:22:04;98921.03;;;24.90;46.49
73501;BME280;61721;42.206;25.320;2023-07-31T02:24:31;98930.66;;;24.42;48.12
73501;BME280;61721;42.206;25.320;2023-07-31T02:26:58;98927.38;;;24.60;47.75
73501;BME280;61721;42.206;25.320;2023-07-31T02:29:25;98938.66;;;24.64;47.32
73501;BME280;61721;42.206;25.320;2023-07-31T02:31:52;98938.50;;;24.08;48.25
73501;BME280;61721;42.206;25.320;2023-07-31T02:34:20;98941.69;;;23.75;49.48
73501;BME280;61721;42.206;25.320;2023-07-31T02:36:48;98946.53;;;23.57;50.21
73501;BME280;61721;42.206;25.320;2023-07-31T02:39:15;98949.38;;;23.73;49.73
73501;BME280;61721;42.206;25.320;2023-07-31T02:41:42;98950.91;;;24.11;48.73
73501;BME280;61721;42.206;25.320;2023-07-31T02:44:09;98948.72;;;23.55;50.13
73501;BME280;61721;42.206;25.320;2023-07-31T02:46:40;98944.44;;;23.80;49.41
73501;BME280;61721;42.206;25.320;2023-07-31T02:49:07;98946.88;;;22.87;51.70
73501;BME280;61721;42.206;25.320;2023-07-31T02:51:34;98947.41;;;23.68;49.83
73501;BME280;61721;42.206;25.320;2023-07-31T02:54:02;98947.81;;;23.97;48.86
73501;BME280;61721;42.206;25.320;2023-07-31T02:56:29;98958.38;;;24.25;47.71
73501;BME280;61721;42.206;25.320;2023-07-31T02:58:57;98956.53;;;24.46;47.03
73501;BME280;61721;42.206;25.320;2023-07-31T03:01:24;98946.91;;;24.54;46.78
73501;BME280;61721;42.206;25.320;2023-07-31T03:03:51;98953.50;;;24.43;46.81
73501;BME280;61721;42.206;25.320;2023-07-31T03:06:20;98946.78;;;24.18;47.31
73501;BME280;61721;42.206;25.320;2023-07-31T03:08:47;98950.19;;;24.36;47.14
73501;BME280;61721;42.206;25.320;2023-07-31T03:11:23;98946.91;;;24.59;46.01
73501;BME280;61721;42.206;25.320;2023-07-31T03:13:50;98944.97;;;24.54;46.19
73501;BME280;61721;42.206;25.320;2023-07-31T03:16:17;98939.09;;;24.20;46.96
73501;BME280;61721;42.206;25.320;2023-07-31T03:18:44;98937.44;;;24.19;46.82
73501;BME280;61721;42.206;25.320;2023-07-31T03:21:12;98935.22;;;24.11;47.49
73501;BME280;61721;42.206;25.320;2023-07-31T03:23:39;98941.22;;;23.98;47.83
73501;BME280;61721;42.206;25.320;2023-07-31T03:26:07;98940.44;;;24.08;47.72
73501;BME280;61721;42.206;25.320;2023-07-31T03:28:36;98943.19;;;24.08;47.76
73501;BME280;61721;42.206;25.320;2023-07-31T03:31:03;98948.72;;;24.18;47.69
73501;BME280;61721;42.206;25.320;2023-07-31T03:33:31;98939.38;;;24.24;47.35
73501;BME280;61721;42.206;25.320;2023-07-31T03:35:58;98942.66;;;24.11;47.48
73501;BME280;61721;42.206;25.320;2023-07-31T03:38:25;98939.69;;;24.27;47.25
73501;BME280;61721;42.206;25.320;2023-07-31T03:40:52;98945.16;;;24.22;47.33
73501;BME280;61721;42.206;25.320;2023-07-31T03:43:19;98951.03;;;24.56;46.97
73501;BME280;61721;42.206;25.320;2023-07-31T03:45:48;98946.91;;;24.54;46.55
73501;BME280;61721;42.206;25.320;2023-07-31T03:48:15;98942.75;;;24.46;46.90
73501;BME280;61721;42.206;25.320;2023-07-31T03:50:43;98943.06;;;24.55;46.66
73501;BME280;61721;42.206;25.320;2023-07-31T03:53:10;98948.00;;;24.48;46.88
73501;BME280;61721;42.206;25.320;2023-07-31T03:55:37;98954.63;;;24.57;47.23
73501;BME280;61721;42.206;25.320;2023-07-31T03:58:04;98949.97;;;24.78;46.43
73501;BME280;61721;42.206;25.320;2023-07-31T04:00:31;98947.47;;;24.56;47.26
73501;BME280;61721;42.206;25.320;2023-07-31T04:03:00;98959.59;;;24.75;46.24
73501;BME280;61721;42.206;25.320;2023-07-31T04:05:27;98953.53;;;24.83;46.46
73501;BME280;61721;42.206;25.320;2023-07-31T04:07:54;98949.97;;;24.88;45.72
73501;BME280;61721;42.206;25.320;2023-07-31T04:10:21;98953.53;;;24.68;46.94
73501;BME280;61721;42.206;25.320;2023-07-31T04:12:48;98961.19;;;24.41;47.71
73501;BME280;61721;42.206;25.320;2023-07-31T04:15:15;98949.94;;;24.52;47.63
73501;BME280;61721;42.206;25.320;2023-07-31T04:17:42;98957.94;;;24.74;46.74
73501;BME280;61721;42.206;25.320;2023-07-31T04:20:11;98945.28;;;24.78;46.63
73501;BME280;61721;42.206;25.320;2023-07-31T04:22:39;98949.09;;;24.52;47.34
73501;BME280;61721;42.206;25.320;2023-07-31T04:25:06;98958.47;;;24.61;46.92
73501;BME280;61721;42.206;25.320;2023-07-31T04:27:34;98954.91;;;24.71;47.04
73501;BME280;61721;42.206;25.320;2023-07-31T04:30:01;98956.34;;;24.99;45.99
73501;BME280;61721;42.206;25.320;2023-07-31T04:32:29;98960.75;;;25.10;45.94
73501;BME280;61721;42.206;25.320;2023-07-31T04:34:56;98976.16;;;25.01;46.15
73501;BME280;61721;42.206;25.320;2023-07-31T04:37:26;98986.28;;;24.54;47.12
73501;BME280;61721;42.206;25.320;2023-07-31T04:39:54;98987.41;;;24.69;46.96
73501;BME280;61721;42.206;25.320;2023-07-31T04:42:21;98992.56;;;24.35;48.19
73501;BME280;61721;42.206;25.320;2023-07-31T04:44:48;99000.22;;;24.27;48.31
73501;BME280;61721;42.206;25.320;2023-07-31T04:47:15;98998.47;;;24.06;49.65
73501;BME280;61721;42.206;25.320;2023-07-31T04:49:42;99003.59;;;23.45;52.10
73501;BME280;61721;42.206;25.320;2023-07-31T04:52:09;99008.25;;;23.82;52.23
73501;BME280;61721;42.206;25.320;2023-07-31T04:54:38;99010.66;;;23.73;53.43
73501;BME280;61721;42.206;25.320;2023-07-31T04:57:06;99006.88;;;23.42;56.47
73501;BME280;61721;42.206;25.320;2023-07-31T04:59:33;99014.06;;;23.48;57.33
73501;BME280;61721;42.206;25.320;2023-07-31T05:02:00;99013.34;;;24.15;55.99
73501;BME280;61721;42.206;25.320;2023-07-31T05:04:27;99016.63;;;23.60;57.07
73501;BME280;61721;42.206;25.320;2023-07-31T05:06:54;99014.91;;;23.12;58.42
73501;BME280;61721;42.206;25.320;2023-07-31T05:09:21;99023.78;;;23.61;57.37
73501;BME280;61721;42.206;25.320;2023-07-31T05:11:50;99021.59;;;23.63;57.53
73501;BME280;61721;42.206;25.320;2023-07-31T05:14:17;99027.03;;;23.16;59.20
73501;BME280;61721;42.206;25.320;2023-07-31T05:16:45;99033.59;;;23.15;58.84
73501;BME280;61721;42.206;25.320;2023-07-31T05:19:12;99035.88;;;23.23;59.26
73501;BME280;61721;42.206;25.320;2023-07-31T05:21:40;99039.06;;;22.83;60.65
73501;BME280;61721;42.206;25.320;2023-07-31T05:24:09;99036.63;;;22.38;63.35
73501;BME280;61721;42.206;25.320;2023-07-31T05:26:37;99040.69;;;22.57;63.37
73501;BME280;61721;42.206;25.320;2023-07-31T05:29:05;99037.16;;;22.34;63.78
73501;BME280;61721;42.206;25.320;2023-07-31T05:31:32;99036.78;;;22.75;62.93
73501;BME280;61721;42.206;25.320;2023-07-31T05:34:00;99051.97;;;22.60;63.38
73501;BME280;61721;42.206;25.320;2023-07-31T05:36:27;99062.66;;;22.35;64.68
73501;BME280;61721;42.206;25.320;2023-07-31T05:38:54;99070.22;;;22.93;63.01
73501;BME280;61721;42.206;25.320;2023-07-31T05:41:21;99079.25;;;22.45;64.33
73501;BME280;61721;42.206;25.320;2023-07-31T05:43:48;99077.03;;;22.91;63.54
73501;BME280;61721;42.206;25.320;2023-07-31T05:46:16;99083.28;;;23.45;61.70
73501;BME280;61721;42.206;25.320;2023-07-31T05:48:44;99078.34;;;23.47;61.63
73501;BME280;61721;42.206;25.320;2023-07-31T05:51:11;99074.06;;;23.24;63.15
73501;BME280;61721;42.206;25.320;2023-07-31T05:53:38;99071.31;;;23.56;61.67
73501;BME280;61721;42.206;25.320;2023-07-31T05:56:07;99091.28;;;23.15;63.36
73501;BME280;61721;42.206;25.320;2023-07-31T05:58:34;99077.81;;;23.50;61.84
73501;BME280;61721;42.206;25.320;2023-07-31T06:01:01;99077.47;;;23.37;62.30
73501;BME280;61721;42.206;25.320;2023-07-31T06:03:30;99089.19;;;23.27;62.78
73501;BME280;61721;42.206;25.320;2023-07-31T06:05:57;99082.28;;;23.19;63.16
73501;BME280;61721;42.206;25.320;2023-07-31T06:08:24;99075.59;;;23.10;63.46
73501;BME280;61721;42.206;25.320;2023-07-31T06:10:51;99072.81;;;23.37;62.76
73501;BME280;61721;42.206;25.320;2023-07-31T06:13:18;99063.38;;;23.28;62.89
73501;BME280;61721;42.206;25.320;2023-07-31T06:15:45;99066.41;;;23.26;63.10
73501;BME280;61721;42.206;25.320;2023-07-31T06:18:12;99061.59;;;23.12;64.05
73501;BME280;61721;42.206;25.320;2023-07-31T06:20:41;99058.75;;;23.34;63.36
73501;BME280;61721;42.206;25.320;2023-07-31T06:23:08;99060.72;;;23.43;62.90
73501;BME280;61721;42.206;25.320;2023-07-31T06:25:36;99062.25;;;23.24;63.71
73501;BME280;61721;42.206;25.320;2023-07-31T06:28:04;99068.41;;;23.36;64.08
73501;BME280;61721;42.206;25.320;2023-07-31T06:30:31;99063.91;;;23.57;63.40
73501;BME280;61721;42.206;25.320;2023-07-31T06:32:58;99070.06;;;23.42;63.41
73501;BME280;61721;42.206;25.320;2023-07-31T06:35:25;99067.84;;;23.34;63.20
73501;BME280;61721;42.206;25.320;2023-07-31T06:37:54;99064.81;;;23.73;62.28
73501;BME280;61721;42.206;25.320;2023-07-31T06:40:22;99075.00;;;23.72;62.77
73501;BME280;61721;42.206;25.320;2023-07-31T06:42:49;99083.78;;;23.05;65.12
73501;BME280;61721;42.206;25.320;2023-07-31T06:45:32;99083.72;;;22.29;68.04
73501;BME280;61721;42.206;25.320;2023-07-31T06:47:59;99084.72;;;22.67;68.04
73501;BME280;61721;42.206;25.320;2023-07-31T06:50:28;99081.09;;;22.61;68.17
73501;BME280;61721;42.206;25.320;2023-07-31T06:53:03;99084.50;;;22.95;67.73
73501;BME280;61721;42.206;25.320;2023-07-31T06:55:30;99087.66;;;23.09;67.71
73501;BME280;61721;42.206;25.320;2023-07-31T06:57:57;99091.22;;;22.17;70.58
73501;BME280;61721;42.206;25.320;2023-07-31T07:00:24;99079.00;;;22.95;68.20
73501;BME280;61721;42.206;25.320;2023-07-31T07:02:51;99077.16;;;23.33;66.83
73501;BME280;61721;42.206;25.320;2023-07-31T07:05:19;99075.59;;;23.10;68.43
73501;BME280;61721;42.206;25.320;2023-07-31T07:07:46;99077.69;;;22.76;68.82
73501;BME280;61721;42.206;25.320;2023-07-31T07:10:21;99084.97;;;23.14;67.70
73501;BME280;61721;42.206;25.320;2023-07-31T07:12:48;99072.38;;;23.18;67.78
73501;BME280;61721;42.206;25.320;2023-07-31T07:15:15;99074.84;;;23.89;66.00
73501;BME280;61721;42.206;25.320;2023-07-31T07:17:43;99076.34;;;24.12;64.92
73501;BME280;61721;42.206;25.320;2023-07-31T07:20:10;99078.81;;;24.13;64.69
73501;BME280;61721;42.206;25.320;2023-07-31T07:22:37;99073.06;;;24.15;64.27
73501;BME280;61721;42.206;25.320;2023-07-31T07:25:05;99066.81;;;24.30;64.06
73501;BME280;61721;42.206;25.320;2023-07-31T07:27:34;99075.72;;;24.52;64.57
73501;BME280;61721;42.206;25.320;2023-07-31T07:30:02;99073.88;;;24.83;64.46
73501;BME280;61721;42.206;25.320;2023-07-31T07:32:29;99066.53;;;25.09;63.32
73501;BME280;61721;42.206;25.320;2023-07-31T07:34:56;99072.63;;;25.46;61.99
73501;BME280;61721;42.206;25.320;2023-07-31T07:37:23;99069.59;;;25.28;61.18
73501;BME280;61721;42.206;25.320;2023-07-31T07:39:50;99070.97;;;25.45;61.78
73501;BME280;61721;42.206;25.320;2023-07-31T07:42:18;99063.22;;;25.58;61.49
73501;BME280;61721;42.206;25.320;2023-07-31T07:44:46;99066.56;;;25.44;59.85
73501;BME280;61721;42.206;25.320;2023-07-31T07:47:13;99067.94;;;25.52;58.28
73501;BME280;61721;42.206;25.320;2023-07-31T07:49:40;99070.44;;;25.69;59.19
73501;BME280;61721;42.206;25.320;2023-07-31T07:52:08;99062.69;;;25.71;58.49
73501;BME280;61721;42.206;25.320;2023-07-31T07:54:35;99078.69;;;25.84;57.26
73501;BME280;61721;42.206;25.320;2023-07-31T07:57:02;99068.13;;;26.01;56.27
73501;BME280;61721;42.206;25.320;2023-07-31T07:59:29;99059.91;;;25.86;56.32
73501;BME280;61721;42.206;25.320;2023-07-31T08:01:58;99060.44;;;25.93;56.14
73501;BME280;61721;42.206;25.320;2023-07-31T08:04:25;99057.56;;;26.24;56.33
73501;BME280;61721;42.206;25.320;2023-07-31T08:06:52;99058.25;;;26.65;54.90
73501;BME280;61721;42.206;25.320;2023-07-31T08:09:19;99056.44;;;26.40;54.63
73501;BME280;61721;42.206;25.320;2023-07-31T08:11:46;99050.38;;;26.28;55.22
73501;BME280;61721;42.206;25.320;2023-07-31T08:14:14;99054.81;;;26.34;55.58
73501;BME280;61721;42.206;25.320;2023-07-31T08:16:41;99063.28;;;26.52;55.86
73501;BME280;61721;42.206;25.320;2023-07-31T08:19:10;99066.09;;;26.97;53.85
73501;BME280;61721;42.206;25.320;2023-07-31T08:21:38;99061.38;;;26.48;54.75
73501;BME280;61721;42.206;25.320;2023-07-31T08:24:05;99071.69;;;26.81;53.46
73501;BME280;61721;42.206;25.320;2023-07-31T08:26:34;99071.69;;;27.26;53.77
73501;BME280;61721;42.206;25.320;2023-07-31T08:29:01;99071.22;;;26.64;52.83
73501;BME280;61721;42.206;25.320;2023-07-31T08:31:28;99070.44;;;26.59;54.28
73501;BME280;61721;42.206;25.320;2023-07-31T08:33:56;99068.28;;;26.95;52.86
73501;BME280;61721;42.206;25.320;2023-07-31T08:36:24;99067.44;;;27.72;51.64
73501;BME280;61721;42.206;25.320;2023-07-31T08:38:51;99070.75;;;27.74;51.50
73501;BME280;61721;42.206;25.320;2023-07-31T08:41:18;99075.94;;;27.13;52.50
73501;BME280;61721;42.206;25.320;2023-07-31T08:43:47;99075.88;;;27.23;51.55
73501;BME280;61721;42.206;25.320;2023-07-31T08:46:16;99072.25;;;26.78;53.12
73501;BME280;61721;42.206;25.320;2023-07-31T08:48:43;99074.22;;;26.73;52.13
73501;BME280;61721;42.206;25.320;2023-07-31T08:51:11;99077.50;;;26.80;52.13
73501;BME280;61721;42.206;25.320;2023-07-31T08:53:40;99073.81;;;26.95;51.03
73501;BME280;61721;42.206;25.320;2023-07-31T08:56:10;99072.13;;;27.04;51.17
73501;BME280;61721;42.206;25.320;2023-07-31T08:58:39;99062.53;;;27.93;49.68
73501;BME280;61721;42.206;25.320;2023-07-31T09:01:07;99058.56;;;27.75;49.40
73501;BME280;61721;42.206;25.320;2023-07-31T09:03:34;99061.63;;;27.74;49.22
73501;BME280;61721;42.206;25.320;2023-07-31T09:06:03;99056.72;;;28.19;48.68
73501;BME280;61721;42.206;25.320;2023-07-31T09:08:32;99058.00;;;27.78;48.76
73501;BME280;61721;42.206;25.320;2023-07-31T09:11:02;99061.47;;;27.89;48.91
73501;BME280;61721;42.206;25.320;2023-07-31T09:13:31;99070.03;;;27.64;49.01
73501;BME280;61721;42.206;25.320;2023-07-31T09:15:58;99069.50;;;27.62;49.28
73501;BME280;61721;42.206;25.320;2023-07-31T09:18:25;99071.03;;;27.39;48.06
73501;BME280;61721;42.206;25.320;2023-07-31T09:21:02;99075.03;;;28.15;47.27
73501;BME280;61721;42.206;25.320;2023-07-31T09:23:40;99071.72;;;28.41;47.31
73501;BME280;61721;42.206;25.320;2023-07-31T09:26:10;99068.03;;;27.98;47.90
73501;BME280;61721;42.206;25.320;2023-07-31T09:28:37;99068.59;;;27.95;47.54
73501;BME280;61721;42.206;25.320;2023-07-31T09:31:04;99070.44;;;28.05;47.30
73501;BME280;61721;42.206;25.320;2023-07-31T09:33:31;99073.88;;;28.44;45.61
73501;BME280;61721;42.206;25.320;2023-07-31T09:35:59;99074.06;;;28.53;44.80
73501;BME280;61721;42.206;25.320;2023-07-31T09:38:27;99061.53;;;28.74;44.10
73501;BME280;61721;42.206;25.320;2023-07-31T09:40:55;99067.81;;;29.04;43.92
73501;BME280;61721;42.206;25.320;2023-07-31T09:43:27;99061.63;;;28.27;43.62
73501;BME280;61721;42.206;25.320;2023-07-31T09:45:55;99054.25;;;28.41;44.79
73501;BME280;61721;42.206;25.320;2023-07-31T09:48:25;99052.34;;;28.60;43.49
73501;BME280;61721;42.206;25.320;2023-07-31T09:50:53;99055.41;;;28.77;42.93
73501;BME280;61721;42.206;25.320;2023-07-31T09:53:28;99053.03;;;28.90;44.43
73501;BME280;61721;42.206;25.320;2023-07-31T09:55:57;99053.41;;;29.02;42.84
73501;BME280;61721;42.206;25.320;2023-07-31T09:58:28;99050.13;;;28.15;44.61
73501;BME280;61721;42.206;25.320;2023-07-31T10:00:57;99045.31;;;28.49;44.17
73501;BME280;61721;42.206;25.320;2023-07-31T10:03:26;99047.41;;;28.57;44.79
73501;BME280;61721;42.206;25.320;2023-07-31T10:05:55;99042.75;;;28.71;44.46
73501;BME280;61721;42.206;25.320;2023-07-31T10:08:28;99041.94;;;29.08;45.25
73501;BME280;61721;42.206;25.320;2023-07-31T10:10:58;99046.16;;;29.06;44.64
73501;BME280;61721;42.206;25.320;2023-07-31T10:13:30;99045.81;;;28.70;44.83
73501;BME280;61721;42.206;25.320;2023-07-31T10:15:59;99041.19;;;29.22;44.42
73501;BME280;61721;42.206;25.320;2023-07-31T10:18:27;99038.03;;;28.53;46.36
73501;BME280;61721;42.206;25.320;2023-07-31T10:20:55;99042.31;;;29.02;45.35
73501;BME280;61721;42.206;25.320;2023-07-31T10:23:23;99036.69;;;29.07;43.70
73501;BME280;61721;42.206;25.320;2023-07-31T10:25:51;99034.66;;;29.31;44.07
73501;BME280;61721;42.206;25.320;2023-07-31T10:28:21;99041.44;;;29.58;42.70
73501;BME280;61721;42.206;25.320;2023-07-31T10:30:55;99031.66;;;30.07;43.53
73501;BME280;61721;42.206;25.320;2023-07-31T10:33:25;99035.31;;;29.88;43.15
73501;BME280;61721;42.206;25.320;2023-07-31T10:36:14;99029.50;;;30.03;43.61
73501;BME280;61721;42.206;25.320;2023-07-31T10:38:42;99029.25;;;29.86;43.58
73501;BME280;61721;42.206;25.320;2023-07-31T10:41:09;99024.97;;;29.48;43.19
73501;BME280;61721;42.206;25.320;2023-07-31T10:43:42;99016.81;;;29.84;43.87
73501;BME280;61721;42.206;25.320;2023-07-31T10:46:13;99011.53;;;29.55;44.73
73501;BME280;61721;42.206;25.320;2023-07-31T10:48:41;99015.97;;;29.69;43.57
73501;BME280;61721;42.206;25.320;2023-07-31T10:51:10;99005.97;;;29.22;44.04
73501;BME280;61721;42.206;25.320;2023-07-31T10:53:38;98996.25;;;29.06;43.89
73501;BME280;61721;42.206;25.320;2023-07-31T10:56:07;99001.06;;;29.65;42.29
73501;BME280;61721;42.206;25.320;2023-07-31T10:58:36;98994.00;;;30.42;41.48
73501;BME280;61721;42.206;25.320;2023-07-31T11:01:06;98998.69;;;30.68;41.69
73501;BME280;61721;42.206;25.320;2023-07-31T11:03:45;98993.34;;;29.62;44.24
73501;BME280;61721;42.206;25.320;2023-07-31T11:06:13;98991.09;;;29.64;43.36
73501;BME280;61721;42.206;25.320;2023-07-31T11:08:44;98989.53;;;29.26;45.36
73501;BME280;61721;42.206;25.320;2023-07-31T11:11:12;98991.16;;;29.46;45.57
73501;BME280;61721;42.206;25.320;2023-07-31T11:13:44;98993.47;;;29.38;45.69
73501;BME280;61721;42.206;25.320;2023-07-31T11:16:12;98990.50;;;29.81;43.40
73501;BME280;61721;42.206;25.320;2023-07-31T11:18:42;98985.03;;;29.76;43.17
73501;BME280;61721;42.206;25.320;2023-07-31T11:21:14;98991.50;;;29.71;43.77
73501;BME280;61721;42.206;25.320;2023-07-31T11:23:45;98981.78;;;30.29;42.41
73501;BME280;61721;42.206;25.320;2023-07-31T11:26:12;98990.03;;;30.07;42.23
73501;BME280;61721;42.206;25.320;2023-07-31T11:28:39;98985.00;;;30.72;41.53
73501;BME280;61721;42.206;25.320;2023-07-31T11:31:09;98975.66;;;30.68;41.16
73501;BME280;61721;42.206;25.320;2023-07-31T11:33:36;98964.88;;;29.70;42.45
73501;BME280;61721;42.206;25.320;2023-07-31T11:36:04;98964.06;;;29.70;42.71
73501;BME280;61721;42.206;25.320;2023-07-31T11:38:33;98972.09;;;29.99;42.74
73501;BME280;61721;42.206;25.320;2023-07-31T11:41:02;98962.34;;;30.01;41.89
73501;BME280;61721;42.206;25.320;2023-07-31T11:43:29;98949.78;;;30.31;41.96
73501;BME280;61721;42.206;25.320;2023-07-31T11:45:58;98954.69;;;30.34;41.34
73501;BME280;61721;42.206;25.320;2023-07-31T11:48:30;98945.91;;;30.05;41.85
73501;BME280;61721;42.206;25.320;2023-07-31T11:51:00;98950.19;;;29.70;41.94
73501;BME280;61721;42.206;25.320;2023-07-31T11:53:29;98943.22;;;30.14;42.08
73501;BME280;61721;42.206;25.320;2023-07-31T11:56:01;98946.91;;;29.95;42.58
73501;BME280;61721;42.206;25.320;2023-07-31T11:58:30;98942.56;;;29.48;43.31
73501;BME280;61721;42.206;25.320;2023-07-31T12:00:58;98943.81;;;29.69;42.99
73501;BME280;61721;42.206;25.320;2023-07-31T12:03:26;98944.84;;;29.60;43.96
73501;BME280;61721;42.206;25.320;2023-07-31T12:05:54;98937.56;;;30.19;43.15
73501;BME280;61721;42.206;25.320;2023-07-31T12:08:22;98939.09;;;30.11;42.39
73501;BME280;61721;42.206;25.320;2023-07-31T12:10:50;98938.28;;;30.11;41.65
73501;BME280;61721;42.206;25.320;2023-07-31T12:13:22;98946.22;;;30.03;42.86
73501;BME280;61721;42.206;25.320;2023-07-31T12:15:54;98941.34;;;29.54;43.10
73501;BME280;61721;42.206;25.320;2023-07-31T12:18:21;98936.81;;;29.58;42.56
73501;BME280;61721;42.206;25.320;2023-07-31T12:20:54;98937.56;;;29.78;42.14
73501;BME280;61721;42.206;25.320;2023-07-31T12:23:23;98930.66;;;30.16;42.11
73501;BME280;61721;42.206;25.320;2023-07-31T12:26:00;98924.19;;;29.93;42.01
73501;BME280;61721;42.206;25.320;2023-07-31T12:28:29;98926.72;;;30.31;41.08
73501;BME280;61721;42.206;25.320;2023-07-31T12:30:58;98918.16;;;30.41;40.33
73501;BME280;61721;42.206;25.320;2023-07-31T12:33:31;98918.66;;;30.07;39.98
73501;BME280;61721;42.206;25.320;2023-07-31T12:36:00;98928.66;;;30.44;40.16
73501;BME280;61721;42.206;25.320;2023-07-31T12:38:27;98927.28;;;29.78;42.16
73501;BME280;61721;42.206;25.320;2023-07-31T12:40:54;98930.97;;;29.87;41.74
73501;BME280;61721;42.206;25.320;2023-07-31T12:43:23;98927.69;;;29.85;41.32
73501;BME280;61721;42.206;25.320;2023-07-31T12:45:51;98933.22;;;29.99;41.32
73501;BME280;61721;42.206;25.320;2023-07-31T12:48:18;98923.94;;;30.31;41.04
73501;BME280;61721;42.206;25.320;2023-07-31T12:50:46;98921.69;;;30.69;40.16
73501;BME280;61721;42.206;25.320;2023-07-31T12:53:13;98922.75;;;30.10;40.89
73501;BME280;61721;42.206;25.320;2023-07-31T12:55:42;98912.06;;;30.53;41.22